createdAt,value
2023-02-11T00:02:31.759Z,49.88
2023-02-11T00:17:34.129Z,51.242
2023-02-11T00:32:36.395Z,55.307
2023-02-11T00:47:38.660Z,53.008
2023-02-11T01:02:40.879Z,56.425
2023-02-11T01:17:43.090Z,56.548
2023-02-11T01:32:45.341Z,57.197
2023-02-11T01:47:47.598Z,58.257
2023-02-11T02:02:49.824Z,57.646
2023-02-11T02:17:52.038Z,57.65
2023-02-11T02:32:54.313Z,60.563
2023-02-11T02:47:56.589Z,59.61
2023-02-11T03:02:58.822Z,59.925
2023-02-11T03:18:01.058Z,62.396
2023-02-11T03:33:03.331Z,61.569
2023-02-11T03:48:05.605Z,61.317
2023-02-11T04:03:07.982Z,62.185
2023-02-11T04:18:10.247Z,61.881
2023-02-11T04:33:12.503Z,62.645
2023-02-11T04:48:14.826Z,63.743
2023-02-11T05:03:17.130Z,63.556
2023-02-11T05:18:19.386Z,65.54
2023-02-11T05:33:21.588Z,65.824
2023-02-11T05:48:23.971Z,64.285
2023-02-11T06:03:26.218Z,64.203
2023-02-11T06:18:28.488Z,64.183
2023-02-11T06:33:30.811Z,64.878
2023-02-11T06:48:33.080Z,64.231
2023-02-11T07:03:35.342Z,65.661
2023-02-11T07:18:37.614Z,64.25
2023-02-11T07:33:39.841Z,64.603
2023-02-11T07:48:42.121Z,64.746
2023-02-11T08:03:44.370Z,66.727
2023-02-11T08:18:46.770Z,65.8
2023-02-11T08:33:49.093Z,67.713
2023-02-11T08:48:51.448Z,67.047
2023-02-11T09:03:53.795Z,66.825
2023-02-11T09:18:56.022Z,67.664
2023-02-11T09:33:58.493Z,65.648
2023-02-11T09:49:00.765Z,65.856
2023-02-11T10:04:03.072Z,66.732
2023-02-11T10:19:05.366Z,64.947
2023-02-11T10:34:07.631Z,65.447
2023-02-11T10:49:09.916Z,66.526
2023-02-11T11:04:12.373Z,67.252
2023-02-11T11:19:14.615Z,66.4
2023-02-11T11:34:16.876Z,67.538
2023-02-11T11:49:19.098Z,67.036
2023-02-11T12:04:21.318Z,69.47
2023-02-11T12:19:23.539Z,66.518
2023-02-11T12:34:25.785Z,68.935
2023-02-11T12:49:28.152Z,70.622
2023-02-11T13:04:30.421Z,67.597
2023-02-11T13:19:32.737Z,67.456
2023-02-11T13:34:35.178Z,69.635
2023-02-11T13:49:37.392Z,69.559
2023-02-11T14:04:39.601Z,69.747
2023-02-11T14:19:42.025Z,71.244
2023-02-11T14:34:44.276Z,69.19
2023-02-11T14:49:46.591Z,70.577
2023-02-11T15:04:48.861Z,71.14
2023-02-11T15:19:51.122Z,70.258
2023-02-11T15:34:53.357Z,72.116
2023-02-11T15:49:55.625Z,73.563
2023-02-11T16:04:57.896Z,71.97
2023-02-11T16:20:00.201Z,71.683
2023-02-11T16:35:02.579Z,74.375
2023-02-11T16:50:04.802Z,70.833
2023-02-11T17:05:07.108Z,69.878
2023-02-11T17:20:09.420Z,68.94
2023-02-11T17:35:11.678Z,68.285
2023-02-11T17:50:13.991Z,69.882
2023-02-11T18:05:16.398Z,68.889
2023-02-11T18:20:18.763Z,69.557
2023-02-11T18:35:21.113Z,68.382
2023-02-11T18:50:23.354Z,67.136
2023-02-11T19:05:25.589Z,67.829
2023-02-11T19:20:27.830Z,67.85
2023-02-11T19:35:30.138Z,65.044
2023-02-11T19:50:32.413Z,64.07
2023-02-11T20:05:34.610Z,63.166
2023-02-11T20:20:36.824Z,61.266
2023-02-11T20:35:39.086Z,60.486
2023-02-11T20:50:41.357Z,58.51
2023-02-11T21:05:43.593Z,57.214
2023-02-11T21:20:45.862Z,56.383
2023-02-11T21:35:48.330Z,53.405
2023-02-11T21:50:50.546Z,55.822
2023-02-11T22:21:09.068Z,54.612
2023-02-11T22:36:11.252Z,53.451
2023-02-11T22:51:13.574Z,53.215
2023-02-11T23:06:15.870Z,51.603
2023-02-11T23:21:18.264Z,53.619
2023-02-11T23:36:20.540Z,52.122
2023-02-11T23:51:22.815Z,56.883
